createdAt,value
2023-05-09T00:00:46.946Z,100064.06
2023-05-09T00:03:13.877Z,100064.04
2023-05-09T00:05:41.169Z,100064.40
2023-05-09T00:08:07.903Z,100060.54
2023-05-09T00:10:34.620Z,100056.46
2023-05-09T00:13:01.907Z,100059.48
2023-05-09T00:15:28.804Z,100059.84
2023-05-09T00:17:55.364Z,100056.92
2023-05-09T00:20:22.026Z,100059.20
2023-05-09T00:22:48.540Z,100058.81
2023-05-09T00:25:15.216Z,100060.98
2023-05-09T00:27:42.168Z,100058.40
2023-05-09T00:30:08.893Z,100058.59
2023-05-09T00:32:36.345Z,100058.41
2023-05-09T00:35:03.256Z,100056.60
2023-05-09T00:37:32.987Z,100058.06
2023-05-09T00:39:59.777Z,100059.27
2023-05-09T00:42:26.368Z,100059.34
2023-05-09T00:44:52.926Z,100057.67
2023-05-09T00:47:23.522Z,100058.40
2023-05-09T00:49:50.248Z,100057.08
2023-05-09T00:52:20.862Z,100061.15
2023-05-09T00:54:47.392Z,100058.29
2023-05-09T00:57:13.894Z,100058.23
2023-05-09T00:59:41.486Z,100052.23
2023-05-09T01:02:08.442Z,100054.23
2023-05-09T01:04:35.121Z,100055.42
2023-05-09T01:07:24.004Z,100055.85
2023-05-09T01:10:21.289Z,100059.42
2023-05-09T01:13:09.481Z,100058.45
2023-05-09T01:15:39.066Z,100060.05
2023-05-09T01:18:17.035Z,100058.86
2023-05-09T01:20:57.187Z,100060.18
2023-05-09T01:23:52.199Z,100058.27
2023-05-09T01:26:45.991Z,100056.98
2023-05-09T01:29:34.848Z,100061.40
2023-05-09T01:32:04.313Z,100056.56
2023-05-09T01:34:30.900Z,100060.48
2023-05-09T01:36:58.803Z,100061.61
2023-05-09T01:39:25.386Z,100061.00
2023-05-09T01:41:53.267Z,100054.30
2023-05-09T01:44:19.888Z,100058.15
2023-05-09T01:46:46.422Z,100062.94
2023-05-09T01:49:13.721Z,100061.44
2023-05-09T01:51:43.698Z,100060.27
2023-05-09T01:54:11.732Z,100061.64
2023-05-09T01:56:38.244Z,100063.23
2023-05-09T01:59:06.017Z,100063.41
2023-05-09T02:01:33.117Z,100061.70
2023-05-09T02:04:00.956Z,100064.85
2023-05-09T02:06:29.306Z,100064.38
2023-05-09T02:08:57.135Z,100062.09
2023-05-09T02:11:25.659Z,100061.05
2023-05-09T02:13:52.272Z,100060.34
2023-05-09T02:16:20.622Z,100060.11
2023-05-09T02:18:48.062Z,100059.34
2023-05-09T02:21:14.729Z,100057.91
2023-05-09T02:23:41.260Z,100056.92
2023-05-09T02:26:08.012Z,100059.23
2023-05-09T02:28:35.142Z,100063.33
2023-05-09T02:31:01.666Z,100061.88
2023-05-09T02:33:28.879Z,100063.85
2023-05-09T02:35:55.368Z,100064.34
2023-05-09T02:38:23.488Z,100062.94
2023-05-09T02:40:52.283Z,100064.66
2023-05-09T02:43:19.325Z,100066.88
2023-05-09T02:45:45.945Z,100065.84
2023-05-09T02:48:12.895Z,100065.05
2023-05-09T02:50:42.288Z,100066.50
2023-05-09T02:53:09.187Z,100066.34
2023-05-09T02:55:35.785Z,100064.31
2023-05-09T02:58:12.687Z,100066.81
2023-05-09T03:00:41.496Z,100067.43
2023-05-09T03:03:09.422Z,100072.02
2023-05-09T03:05:36.256Z,100072.13
2023-05-09T03:08:02.949Z,100074.30
2023-05-09T03:10:30.194Z,100074.70
2023-05-09T03:12:56.687Z,100076.48
2023-05-09T03:15:23.448Z,100076.51
2023-05-09T03:17:50.271Z,100077.17
2023-05-09T03:20:17.243Z,100077.18
2023-05-09T03:22:43.831Z,100080.00
2023-05-09T03:25:11.349Z,100078.77
2023-05-09T03:27:38.824Z,100082.35
2023-05-09T03:30:08.708Z,100082.42
2023-05-09T03:32:36.757Z,100080.70
2023-05-09T03:35:03.574Z,100083.45
2023-05-09T03:37:30.836Z,100085.07
2023-05-09T03:39:57.339Z,100088.70
2023-05-09T03:42:24.773Z,100089.48
2023-05-09T03:44:52.964Z,100091.99
2023-05-09T03:47:20.841Z,100091.55
2023-05-09T03:49:47.355Z,100094.33
2023-05-09T03:52:15.569Z,100093.45
2023-05-09T03:54:43.392Z,100096.39
2023-05-09T03:57:10.018Z,100093.55
2023-05-09T03:59:38.176Z,100097.64
2023-05-09T04:02:05.361Z,100097.48
2023-05-09T04:04:32.314Z,100101.89
2023-05-09T04:06:59.137Z,100099.12
2023-05-09T04:09:27.563Z,100104.63
2023-05-09T04:11:54.575Z,100104.20
2023-05-09T04:14:21.178Z,100107.79
2023-05-09T04:16:47.846Z,100103.41
2023-05-09T04:22:09.838Z,100111.59
2023-05-09T04:24:36.778Z,100110.48
2023-05-09T04:27:03.572Z,100113.98
2023-05-09T04:29:30.779Z,100116.70
2023-05-09T04:31:58.388Z,100119.52
2023-05-09T04:34:29.811Z,100114.59
2023-05-09T04:36:58.702Z,100117.27
2023-05-09T04:39:25.667Z,100117.31
2023-05-09T04:41:58.963Z,100119.15
2023-05-09T04:44:25.938Z,100118.45
2023-05-09T04:46:55.237Z,100123.25
2023-05-09T04:49:22.052Z,100119.92
2023-05-09T04:51:48.769Z,100124.45
2023-05-09T04:54:15.607Z,100121.16
2023-05-09T04:56:43.102Z,100122.23
2023-05-09T04:59:10.581Z,100124.02
2023-05-09T05:01:37.552Z,100125.09
2023-05-09T05:04:05.382Z,100120.93
2023-05-09T05:06:32.990Z,100128.82
2023-05-09T05:09:00.013Z,100127.45
2023-05-09T05:11:26.892Z,100128.20
2023-05-09T05:13:53.732Z,100129.86
2023-05-09T05:16:21.511Z,100122.86
2023-05-09T05:18:48.491Z,100129.83
2023-05-09T05:21:16.471Z,100125.72
2023-05-09T05:23:43.432Z,100125.27
2023-05-09T05:26:11.575Z,100128.27
2023-05-09T05:28:38.716Z,100128.79
2023-05-09T05:31:06.888Z,100126.82
2023-05-09T05:33:33.794Z,100116.53
2023-05-09T05:36:01.232Z,100117.78
2023-05-09T05:38:28.127Z,100121.56
2023-05-09T05:40:55.934Z,100121.27
2023-05-09T05:43:22.812Z,100123.35
2023-05-09T05:45:49.644Z,100119.97
2023-05-09T05:48:17.595Z,100119.33
2023-05-09T05:50:45.909Z,100126.92
2023-05-09T05:53:13.657Z,100118.98
2023-05-09T05:55:40.704Z,100122.04
2023-05-09T05:58:07.497Z,100121.30
2023-05-09T06:00:34.928Z,100118.98
2023-05-09T06:03:02.824Z,100120.95
2023-05-09T06:05:44.202Z,100125.00
2023-05-09T06:08:14.270Z,100125.40
2023-05-09T06:10:41.791Z,100128.50
2023-05-09T06:13:08.671Z,100128.47
2023-05-09T06:15:35.958Z,100132.30
2023-05-09T06:18:02.720Z,100131.05
2023-05-09T06:20:29.498Z,100134.83
2023-05-09T06:22:56.244Z,100134.80
2023-05-09T06:25:22.981Z,100131.87
2023-05-09T06:27:50.826Z,100134.14
2023-05-09T06:30:26.217Z,100132.63
2023-05-09T06:32:54.885Z,100130.45
2023-05-09T06:35:21.963Z,100132.20
2023-05-09T06:37:49.264Z,100124.61
2023-05-09T06:40:17.106Z,100130.08
2023-05-09T06:42:44.976Z,100128.58
2023-05-09T06:45:12.067Z,100122.55
2023-05-09T06:47:38.965Z,100124.65
2023-05-09T06:50:06.882Z,100124.11
2023-05-09T06:52:33.646Z,100126.87
2023-05-09T06:55:00.373Z,100129.58
2023-05-09T06:57:27.185Z,100128.52
2023-05-09T06:59:54.930Z,100129.52
2023-05-09T07:02:21.659Z,100122.33
2023-05-09T07:04:49.072Z,100116.88
2023-05-09T07:07:16.396Z,100113.38
2023-05-09T07:09:44.266Z,100112.95
2023-05-09T07:12:10.993Z,100112.05
2023-05-09T07:14:37.692Z,100113.67
2023-05-09T07:17:18.038Z,100104.70
2023-05-09T07:19:45.538Z,100107.05
2023-05-09T07:22:13.612Z,100106.75
2023-05-09T07:24:40.482Z,100110.83
2023-05-09T07:27:07.260Z,100104.83
2023-05-09T07:29:35.057Z,100090.30
2023-05-09T07:32:01.795Z,100084.71
2023-05-09T07:34:28.687Z,100083.48
2023-05-09T07:36:55.673Z,100088.02
2023-05-09T07:39:23.381Z,100073.05
2023-05-09T07:41:50.562Z,100075.88
2023-05-09T07:44:17.305Z,100056.98
2023-05-09T07:46:44.059Z,100069.20
2023-05-09T07:49:10.806Z,100066.18
2023-05-09T07:51:37.607Z,100074.10
2023-05-09T07:54:04.334Z,100067.91
2023-05-09T07:56:31.089Z,100076.66
2023-05-09T07:58:57.940Z,100070.38
2023-05-09T08:01:24.714Z,100065.88
2023-05-09T08:03:52.254Z,100066.90
2023-05-09T08:06:19.058Z,100058.51
2023-05-09T08:08:45.831Z,100054.46
2023-05-09T08:11:12.558Z,100067.22
2023-05-09T08:13:39.383Z,100063.41
2023-05-09T08:16:06.745Z,100070.39
2023-05-09T08:18:33.601Z,100068.83
2023-05-09T08:21:01.073Z,100063.51
2023-05-09T08:23:28.140Z,100064.42
2023-05-09T08:25:54.906Z,100057.52
2023-05-09T08:28:24.397Z,100060.44
2023-05-09T08:30:51.774Z,100062.06
2023-05-09T08:33:19.656Z,100057.08
2023-05-09T08:35:51.021Z,100055.23
2023-05-09T08:38:17.818Z,100058.92
2023-05-09T08:40:44.534Z,100051.39
2023-05-09T08:43:12.063Z,100049.70
2023-05-09T08:45:52.516Z,100040.50
2023-05-09T08:48:19.313Z,100053.70
2023-05-09T08:50:46.043Z,100053.17
2023-05-09T08:53:13.329Z,100050.41
2023-05-09T08:55:42.167Z,100041.41
2023-05-09T08:58:13.408Z,100045.65
2023-05-09T09:00:41.334Z,100042.79
2023-05-09T09:03:08.141Z,100043.07
2023-05-09T09:05:41.903Z,100042.01
2023-05-09T09:08:10.163Z,100040.58
2023-05-09T09:10:37.004Z,100026.15
2023-05-09T09:13:05.090Z,100028.35
2023-05-09T09:15:37.071Z,100022.98
2023-05-09T09:18:09.358Z,100021.60
2023-05-09T09:20:37.846Z,99997.10
2023-05-09T09:23:05.701Z,100018.33
2023-05-09T09:25:32.401Z,100021.42
2023-05-09T09:27:59.366Z,100018.73
2023-05-09T09:30:26.711Z,100021.36
2023-05-09T09:32:53.516Z,100026.63
2023-05-09T09:35:20.602Z,100025.21
2023-05-09T09:37:47.660Z,100009.60
2023-05-09T09:40:14.687Z,100018.09
2023-05-09T09:42:45.750Z,100005.66
2023-05-09T09:45:14.023Z,100012.75
2023-05-09T09:47:41.195Z,100015.98
2023-05-09T09:50:18.645Z,100006.05
2023-05-09T09:52:53.130Z,99997.61
2023-05-09T09:55:20.600Z,100005.04
2023-05-09T09:57:48.733Z,100006.16
2023-05-09T10:00:17.165Z,99996.70
2023-05-09T10:02:52.156Z,99999.30
2023-05-09T10:05:29.261Z,100002.40
2023-05-09T10:08:00.377Z,100002.02
2023-05-09T10:10:28.309Z,100010.11
2023-05-09T10:13:02.612Z,100004.87
2023-05-09T10:15:41.498Z,100016.23
2023-05-09T10:18:20.233Z,100009.00
2023-05-09T10:20:47.240Z,100000.41
2023-05-09T10:23:14.210Z,100005.52
2023-05-09T10:25:48.471Z,100004.54
2023-05-09T10:28:17.904Z,100004.91
2023-05-09T10:31:00.506Z,100001.20
2023-05-09T10:33:31.658Z,100002.23
2023-05-09T10:35:59.471Z,99981.73
2023-05-09T10:38:26.229Z,99997.05
2023-05-09T10:40:53.449Z,100005.95
2023-05-09T10:43:21.647Z,100008.61
2023-05-09T10:45:48.765Z,100005.40
2023-05-09T10:48:15.496Z,99999.10
2023-05-09T10:50:42.820Z,99996.14
2023-05-09T10:53:19.967Z,99995.54
2023-05-09T10:55:47.153Z,99990.33
2023-05-09T10:58:21.873Z,99992.11
2023-05-09T11:00:49.342Z,99985.57
2023-05-09T11:03:17.102Z,99976.70
2023-05-09T11:05:44.007Z,99972.56
2023-05-09T11:08:26.970Z,99975.05
2023-05-09T11:10:58.072Z,99974.05
2023-05-09T11:13:25.600Z,99976.02
2023-05-09T11:16:01.710Z,99967.60
2023-05-09T11:18:29.205Z,99971.28
2023-05-09T11:20:56.089Z,99972.16
2023-05-09T11:23:26.104Z,99977.02
2023-05-09T11:25:53.989Z,99963.78
2023-05-09T11:28:28.791Z,99963.98
2023-05-09T11:31:12.367Z,99962.90
2023-05-09T11:33:39.734Z,99963.34
2023-05-09T11:36:25.487Z,99966.52
2023-05-09T11:39:08.786Z,99966.13
2023-05-09T11:41:43.438Z,99969.05
2023-05-09T11:44:20.121Z,99965.27
2023-05-09T11:46:48.092Z,99964.04
2023-05-09T11:49:15.218Z,99959.30
2023-05-09T11:51:42.668Z,99961.77
2023-05-09T11:54:10.740Z,99950.99
2023-05-09T11:56:39.696Z,99948.77
2023-05-09T11:59:07.667Z,99954.49
2023-05-09T12:01:34.435Z,99946.33
2023-05-09T12:04:01.827Z,99943.20
2023-05-09T12:06:30.089Z,99931.73
2023-05-09T12:08:57.940Z,99931.02
2023-05-09T12:11:24.777Z,99932.52
2023-05-09T12:13:52.529Z,99930.66
2023-05-09T12:16:20.191Z,99938.17
2023-05-09T12:18:48.707Z,99934.52
2023-05-09T12:21:16.102Z,99934.45
2023-05-09T12:23:42.878Z,99927.92
2023-05-09T12:26:09.932Z,99926.25
2023-05-09T12:28:36.757Z,99921.27
2023-05-09T12:31:04.299Z,99919.64
2023-05-09T12:33:31.743Z,99914.55
2023-05-09T12:36:10.325Z,99918.41
2023-05-09T12:38:37.725Z,99914.48
2023-05-09T12:41:12.955Z,99917.69
2023-05-09T12:43:49.476Z,99915.83
2023-05-09T12:46:20.294Z,99919.43
2023-05-09T12:48:50.151Z,99913.08
2023-05-09T12:51:20.969Z,99909.36
2023-05-09T12:53:48.020Z,99908.81
2023-05-09T12:56:19.055Z,99902.65
2023-05-09T12:58:53.199Z,99889.24
2023-05-09T13:01:23.266Z,99886.91
2023-05-09T13:04:00.102Z,99898.26
2023-05-09T13:06:27.861Z,99891.37
2023-05-09T13:09:00.184Z,99892.42
2023-05-09T13:11:27.276Z,99891.77
2023-05-09T13:13:57.135Z,99895.27
2023-05-09T13:16:24.052Z,99889.28
2023-05-09T13:18:50.871Z,99888.52
2023-05-09T13:21:17.585Z,99892.40
2023-05-09T13:23:45.829Z,99893.27
2023-05-09T13:26:12.941Z,99884.82
2023-05-09T13:28:39.796Z,99887.38
2023-05-09T13:31:07.018Z,99885.98
2023-05-09T13:33:34.060Z,99883.77
2023-05-09T13:36:01.077Z,99875.70
2023-05-09T13:38:31.011Z,99878.27
2023-05-09T13:40:58.393Z,99885.04
2023-05-09T13:43:25.149Z,99886.27
2023-05-09T13:45:51.916Z,99878.23
2023-05-09T13:48:18.830Z,99884.19
2023-05-09T13:50:46.813Z,99878.04
2023-05-09T13:53:13.680Z,99878.08
2023-05-09T13:55:40.471Z,99865.80
2023-05-09T13:58:08.450Z,99873.48
2023-05-09T14:00:35.653Z,99869.27
2023-05-09T14:03:03.220Z,99872.92
2023-05-09T14:05:33.295Z,99869.60
2023-05-09T14:08:01.691Z,99866.64
2023-05-09T14:10:28.855Z,99870.07
2023-05-09T14:12:56.562Z,99867.06
2023-05-09T14:15:23.428Z,99867.79
2023-05-09T14:17:50.476Z,99866.99
2023-05-09T14:20:17.503Z,99865.16
2023-05-09T14:22:44.445Z,99869.80
2023-05-09T14:25:11.207Z,99865.98
2023-05-09T14:27:38.071Z,99859.59
2023-05-09T14:30:05.174Z,99863.98
2023-05-09T14:32:32.835Z,99863.02
2023-05-09T14:34:59.789Z,99860.53
2023-05-09T14:37:27.544Z,99866.20
2023-05-09T14:39:54.242Z,99863.30
2023-05-09T14:42:23.006Z,99857.31
2023-05-09T14:44:50.342Z,99865.59
2023-05-09T14:47:18.266Z,99854.29
2023-05-09T14:49:45.191Z,99858.60
2023-05-09T14:52:12.201Z,99856.55
2023-05-09T14:54:39.028Z,99853.78
2023-05-09T14:57:07.577Z,99856.10
2023-05-09T14:59:37.098Z,99850.52
2023-05-09T15:02:04.405Z,99853.32
2023-05-09T15:04:31.648Z,99857.02
2023-05-09T15:06:59.894Z,99851.20
2023-05-09T15:09:27.089Z,99850.00
2023-05-09T15:11:54.962Z,99852.42
2023-05-09T15:14:22.092Z,99849.85
2023-05-09T15:16:51.698Z,99850.39
2023-05-09T15:19:19.151Z,99849.08
2023-05-09T15:21:46.079Z,99846.69
2023-05-09T15:24:12.955Z,99844.11
2023-05-09T15:26:39.768Z,99846.05
2023-05-09T15:29:07.272Z,99843.17
2023-05-09T15:31:36.348Z,99847.77
2023-05-09T15:34:03.651Z,99844.36
2023-05-09T15:36:31.212Z,99843.04
2023-05-09T15:38:58.073Z,99847.73
2023-05-09T15:41:25.106Z,99844.73
2023-05-09T15:43:52.363Z,99846.81
2023-05-09T15:46:19.262Z,99847.28
2023-05-09T15:48:46.295Z,99836.67
2023-05-09T15:51:14.010Z,99842.45
2023-05-09T15:53:40.980Z,99841.63
2023-05-09T15:56:08.285Z,99848.05
2023-05-09T15:58:35.376Z,99845.59
2023-05-09T16:01:05.848Z,99842.47
2023-05-09T16:03:32.822Z,99840.11
2023-05-09T16:05:59.957Z,99838.77
2023-05-09T16:08:26.818Z,99844.65
2023-05-09T16:10:53.569Z,99847.16
2023-05-09T16:13:20.376Z,99840.21
2023-05-09T16:15:48.230Z,99834.13
2023-05-09T16:18:15.224Z,99836.54
2023-05-09T16:20:44.174Z,99836.33
2023-05-09T16:23:11.619Z,99830.79
2023-05-09T16:25:38.686Z,99827.23
2023-05-09T16:28:07.390Z,99827.95
2023-05-09T16:30:34.520Z,99827.20
2023-05-09T16:33:01.773Z,99823.01
2023-05-09T16:35:29.054Z,99821.27
2023-05-09T16:39:52.110Z,99819.48
2023-05-09T16:42:19.083Z,99819.42
2023-05-09T16:44:45.966Z,99820.13
2023-05-09T16:47:12.774Z,99827.58
2023-05-09T16:49:39.571Z,99824.91
2023-05-09T16:52:06.522Z,99824.02
2023-05-09T16:54:33.371Z,99825.73
2023-05-09T16:57:00.261Z,99823.69
2023-05-09T16:59:27.265Z,99826.80
2023-05-09T17:01:54.062Z,99827.98
2023-05-09T17:04:20.989Z,99834.64
2023-05-09T17:06:47.819Z,99831.64
2023-05-09T17:09:14.574Z,99827.84
2023-05-09T17:11:41.450Z,99831.69
2023-05-09T17:14:09.554Z,99831.11
2023-05-09T17:16:38.157Z,99832.64
2023-05-09T17:19:05.344Z,99829.22
2023-05-09T17:21:32.475Z,99835.55
2023-05-09T17:23:59.399Z,99841.70
2023-05-09T17:26:28.147Z,99844.64
2023-05-09T17:28:55.124Z,99840.54
2023-05-09T17:31:22.974Z,99847.21
2023-05-09T17:33:50.193Z,99845.61
2023-05-09T17:36:17.022Z,99845.55
2023-05-09T17:38:44.172Z,99845.39
2023-05-09T17:41:12.149Z,99849.77
2023-05-09T17:43:40.162Z,99845.71
2023-05-09T17:46:08.148Z,99841.73
2023-05-09T17:48:35.025Z,99844.91
2023-05-09T17:51:01.913Z,99839.72
2023-05-09T17:53:28.804Z,99838.63
2023-05-09T17:55:55.776Z,99839.01
2023-05-09T17:58:23.984Z,99839.08
2023-05-09T18:00:54.131Z,99844.40
2023-05-09T18:03:20.995Z,99845.45
2023-05-09T18:05:48.883Z,99835.95
2023-05-09T18:08:16.705Z,99844.05
2023-05-09T18:10:44.010Z,99843.56
2023-05-09T18:13:10.977Z,99843.23
2023-05-09T18:15:38.634Z,99849.77
2023-05-09T18:18:06.959Z,99840.02
2023-05-09T18:20:34.754Z,99844.02
2023-05-09T18:23:01.575Z,99851.04
2023-05-09T18:25:28.572Z,99841.64
2023-05-09T18:27:56.594Z,99842.45
2023-05-09T18:30:23.440Z,99841.48
2023-05-09T18:32:50.323Z,99845.00
2023-05-09T18:35:17.164Z,99850.02
2023-05-09T18:37:44.015Z,99849.27
2023-05-09T18:40:15.605Z,99849.19
2023-05-09T18:42:42.890Z,99850.98
2023-05-09T18:45:10.291Z,99847.34
2023-05-09T18:47:38.083Z,99849.63
2023-05-09T18:50:05.813Z,99850.65
2023-05-09T18:52:32.838Z,99845.93
2023-05-09T18:55:01.092Z,99841.00
2023-05-09T18:57:31.962Z,99849.33
2023-05-09T19:00:02.166Z,99843.41
2023-05-09T19:02:30.740Z,99842.58
2023-05-09T19:04:57.861Z,99834.55
2023-05-09T19:07:24.770Z,99835.07
2023-05-09T19:09:52.018Z,99834.34
2023-05-09T19:12:19.133Z,99833.22
2023-05-09T19:14:46.117Z,99833.98
2023-05-09T19:17:13.099Z,99834.27
2023-05-09T19:19:40.832Z,99835.80
2023-05-09T19:22:07.724Z,99830.52
2023-05-09T19:24:34.655Z,99829.90
2023-05-09T19:27:01.681Z,99829.23
2023-05-09T19:29:28.555Z,99830.83
2023-05-09T19:31:56.114Z,99832.40
2023-05-09T19:34:22.983Z,99832.14
2023-05-09T19:36:49.980Z,99832.59
2023-05-09T19:39:16.953Z,99831.48
2023-05-09T19:41:43.795Z,99831.46
2023-05-09T19:44:10.652Z,99830.92
2023-05-09T19:46:43.044Z,99827.75
2023-05-09T19:49:10.624Z,99825.19
2023-05-09T19:51:37.522Z,99829.36
2023-05-09T19:54:04.852Z,99829.35
2023-05-09T19:56:31.698Z,99828.64
2023-05-09T19:58:58.543Z,99829.48
2023-05-09T20:01:26.345Z,99829.08
2023-05-09T20:03:53.440Z,99825.09
2023-05-09T20:06:26.821Z,99829.61
2023-05-09T20:08:53.643Z,99828.85
2023-05-09T20:11:21.723Z,99823.89
2023-05-09T20:13:48.565Z,99820.56
2023-05-09T20:16:15.492Z,99819.12
2023-05-09T20:18:42.304Z,99817.38
2023-05-09T20:21:10.479Z,99817.34
2023-05-09T20:23:38.174Z,99817.83
2023-05-09T20:26:05.593Z,99814.16
2023-05-09T20:28:32.372Z,99812.87
2023-05-09T20:30:59.320Z,99811.16
2023-05-09T20:33:26.097Z,99811.55
2023-05-09T20:35:52.906Z,99813.14
2023-05-09T20:38:19.812Z,99814.16
2023-05-09T20:40:47.281Z,99812.88
2023-05-09T20:43:14.100Z,99812.04
2023-05-09T20:45:41.109Z,99811.80
2023-05-09T20:48:07.996Z,99810.42
2023-05-09T20:50:34.847Z,99814.35
2023-05-09T20:53:01.662Z,99811.39
2023-05-09T20:55:28.471Z,99810.29
2023-05-09T20:57:55.427Z,99810.05
2023-05-09T21:00:22.255Z,99808.97
2023-05-09T21:02:49.103Z,99809.58
2023-05-09T21:05:15.992Z,99812.11
2023-05-09T21:07:42.773Z,99807.89
2023-05-09T21:10:10.513Z,99805.68
2023-05-09T21:12:37.368Z,99808.23
2023-05-09T21:15:04.677Z,99808.54
2023-05-09T21:17:31.497Z,99807.21
2023-05-09T21:19:58.333Z,99807.58
2023-05-09T21:22:25.170Z,99807.09
2023-05-09T21:24:51.959Z,99804.48
2023-05-09T21:27:18.759Z,99800.91
2023-05-09T21:29:49.217Z,99799.98
2023-05-09T21:32:17.050Z,99793.36
2023-05-09T21:34:43.889Z,99792.77
2023-05-09T21:37:10.735Z,99787.19
2023-05-09T21:39:37.548Z,99786.95
2023-05-09T21:42:04.356Z,99782.10
2023-05-09T21:44:31.245Z,99780.77
2023-05-09T21:46:58.148Z,99778.89
2023-05-09T21:49:28.283Z,99774.00
2023-05-09T21:51:55.355Z,99772.67
2023-05-09T21:54:23.449Z,99770.77
2023-05-09T21:56:50.374Z,99767.46
2023-05-09T21:59:20.804Z,99769.55
2023-05-09T22:01:48.795Z,99765.17
2023-05-09T22:04:15.800Z,99763.77
2023-05-09T22:06:42.826Z,99764.56
2023-05-09T22:09:10.498Z,99758.34
2023-05-09T22:11:37.788Z,99764.71
2023-05-09T22:14:04.679Z,99763.29
2023-05-09T22:16:32.596Z,99766.20
2023-05-09T22:18:59.381Z,99764.98
2023-05-09T22:21:26.253Z,99764.58
2023-05-09T22:23:53.023Z,99761.98
2023-05-09T22:26:19.830Z,99762.71
2023-05-09T22:28:46.699Z,99756.65
2023-05-09T22:31:13.505Z,99755.41
2023-05-09T22:33:40.635Z,99757.40
2023-05-09T22:36:08.771Z,99754.95
2023-05-09T22:38:35.571Z,99756.39
2023-05-09T22:41:02.335Z,99756.98
2023-05-09T22:43:36.819Z,99754.04
2023-05-09T22:46:06.532Z,99750.23
2023-05-09T22:48:33.499Z,99747.61
2023-05-09T22:51:00.327Z,99742.64
2023-05-09T22:53:28.375Z,99742.64
2023-05-09T22:55:55.576Z,99737.82
2023-05-09T22:58:22.781Z,99737.09
2023-05-09T23:00:49.715Z,99739.00
2023-05-09T23:03:17.645Z,99736.81
2023-05-09T23:05:44.609Z,99737.30
2023-05-09T23:08:11.449Z,99735.36
2023-05-09T23:10:38.375Z,99736.20
2023-05-09T23:13:05.357Z,99735.55
2023-05-09T23:15:32.403Z,99734.38
2023-05-09T23:17:59.449Z,99729.98
2023-05-09T23:20:26.730Z,99729.30
2023-05-09T23:22:53.644Z,99729.06
2023-05-09T23:25:20.567Z,99726.71
2023-05-09T23:27:47.444Z,99727.86
2023-05-09T23:30:14.524Z,99727.63
2023-05-09T23:32:41.692Z,99725.23
2023-05-09T23:35:08.847Z,99723.21
2023-05-09T23:37:35.800Z,99717.54
2023-05-09T23:40:04.057Z,99720.53
2023-05-09T23:42:31.009Z,99718.52
2023-05-09T23:44:57.948Z,99719.80
2023-05-09T23:47:24.881Z,99715.45
2023-05-09T23:49:51.744Z,99711.84
2023-05-09T23:52:18.591Z,99711.45
2023-05-09T23:54:45.534Z,99709.83
2023-05-09T23:57:12.383Z,99709.97
2023-05-09T23:59:39.318Z,99710.07
